sensor_id;sensor_type;location;lat;lon;timestamp;temperature;humidity
66119;DHT22;52912;48.564;9.302;2023-07-29T00:00:48;17.03;99.99
66119;DHT22;52912;48.564;9.302;2023-07-29T00:03:13;17.05;99.99
66119;DHT22;52912;48.564;9.302;2023-07-29T00:05:40;17.02;99.99
66119;DHT22;52912;48.564;9.302;2023-07-29T00:08:06;17.02;99.99
66119;DHT22;52912;48.564;9.302;2023-07-29T00:10:33;17.01;99.99
66119;DHT22;52912;48.564;9.302;2023-07-29T00:13:00;16.98;99.99
66119;DHT22;52912;48.564;9.302;2023-07-29T00:15:25;17.06;99.99
66119;DHT22;52912;48.564;9.302;2023-07-29T00:17:52;17.19;99.19
66119;DHT22;52912;48.564;9.302;2023-07-29T00:20:18;17.29;99.29
66119;DHT22;52912;48.564;9.302;2023-07-29T00:22:43;17.41;98.36
66119;DHT22;52912;48.564;9.302;2023-07-29T00:25:09;17.47;98.98
66119;DHT22;52912;48.564;9.302;2023-07-29T00:27:34;17.48;98.17
66119;DHT22;52912;48.564;9.302;2023-07-29T00:30:00;17.40;99.05
66119;DHT22;52912;48.564;9.302;2023-07-29T00:32:26;17.20;99.89
66119;DHT22;52912;48.564;9.302;2023-07-29T00:34:53;17.13;99.97
66119;DHT22;52912;48.564;9.302;2023-07-29T00:37:19;17.18;99.91
66119;DHT22;52912;48.564;9.302;2023-07-29T00:39:44;17.20;99.64
66119;DHT22;52912;48.564;9.302;2023-07-29T00:42:09;17.27;99.02
66119;DHT22;52912;48.564;9.302;2023-07-29T00:44:35;17.41;98.75
66119;DHT22;52912;48.564;9.302;2023-07-29T00:47:02;17.57;98.05
66119;DHT22;52912;48.564;9.302;2023-07-29T00:49:28;17.60;97.98
66119;DHT22;52912;48.564;9.302;2023-07-29T00:51:55;17.71;97.42
66119;DHT22;52912;48.564;9.302;2023-07-29T00:54:21;17.66;97.98
66119;DHT22;52912;48.564;9.302;2023-07-29T00:56:46;17.70;97.47
66119;DHT22;52912;48.564;9.302;2023-07-29T00:59:12;17.53;98.80
66119;DHT22;52912;48.564;9.302;2023-07-29T01:01:38;17.30;99.37
66119;DHT22;52912;48.564;9.302;2023-07-29T01:04:04;17.19;99.99
66119;DHT22;52912;48.564;9.302;2023-07-29T01:06:34;17.12;99.99
66119;DHT22;52912;48.564;9.302;2023-07-29T01:09:11;17.03;99.99
66119;DHT22;52912;48.564;9.302;2023-07-29T01:11:44;17.03;99.99
66119;DHT22;52912;48.564;9.302;2023-07-29T01:14:17;16.96;99.99
66119;DHT22;52912;48.564;9.302;2023-07-29T01:16:50;17.02;99.99
66119;DHT22;52912;48.564;9.302;2023-07-29T01:19:41;16.95;99.99
66119;DHT22;52912;48.564;9.302;2023-07-29T01:22:07;16.96;99.99
66119;DHT22;52912;48.564;9.302;2023-07-29T01:24:34;17.05;99.99
66119;DHT22;52912;48.564;9.302;2023-07-29T01:27:00;17.08;99.99
66119;DHT22;52912;48.564;9.302;2023-07-29T01:29:25;17.19;99.99
66119;DHT22;52912;48.564;9.302;2023-07-29T01:31:52;17.30;99.57
66119;DHT22;52912;48.564;9.302;2023-07-29T01:34:23;17.46;98.81
66119;DHT22;52912;48.564;9.302;2023-07-29T01:36:51;17.37;99.99
66119;DHT22;52912;48.564;9.302;2023-07-29T01:39:20;17.24;99.83
66119;DHT22;52912;48.564;9.302;2023-07-29T01:41:48;17.20;99.99
66119;DHT22;52912;48.564;9.302;2023-07-29T01:44:14;17.06;99.99
66119;DHT22;52912;48.564;9.302;2023-07-29T01:46:40;17.06;99.99
66119;DHT22;52912;48.564;9.302;2023-07-29T01:49:06;16.86;99.99
66119;DHT22;52912;48.564;9.302;2023-07-29T01:51:31;16.88;99.99
66119;DHT22;52912;48.564;9.302;2023-07-29T01:53:56;16.84;99.99
66119;DHT22;52912;48.564;9.302;2023-07-29T01:56:22;16.79;99.99
66119;DHT22;52912;48.564;9.302;2023-07-29T01:58:49;16.81;99.99
66119;DHT22;52912;48.564;9.302;2023-07-29T02:01:14;16.78;99.99
66119;DHT22;52912;48.564;9.302;2023-07-29T02:03:40;16.79;99.99
66119;DHT22;52912;48.564;9.302;2023-07-29T02:06:05;16.72;99.99
66119;DHT22;52912;48.564;9.302;2023-07-29T02:08:30;16.82;99.99
66119;DHT22;52912;48.564;9.302;2023-07-29T02:10:56;16.81;99.99
66119;DHT22;52912;48.564;9.302;2023-07-29T02:13:21;16.74;99.99
66119;DHT22;52912;48.564;9.302;2023-07-29T02:15:48;16.67;99.99
66119;DHT22;52912;48.564;9.302;2023-07-29T02:18:13;16.64;99.99
66119;DHT22;52912;48.564;9.302;2023-07-29T02:20:39;16.67;99.99
66119;DHT22;52912;48.564;9.302;2023-07-29T02:23:04;16.68;99.99
66119;DHT22;52912;48.564;9.302;2023-07-29T02:25:30;16.68;99.99
66119;DHT22;52912;48.564;9.302;2023-07-29T02:27:55;16.58;99.99
66119;DHT22;52912;48.564;9.302;2023-07-29T02:30:21;16.57;99.99
66119;DHT22;52912;48.564;9.302;2023-07-29T02:32:48;16.69;99.99
66119;DHT22;52912;48.564;9.302;2023-07-29T02:35:13;16.71;99.99
66119;DHT22;52912;48.564;9.302;2023-07-29T02:37:39;16.65;99.99
66119;DHT22;52912;48.564;9.302;2023-07-29T02:40:05;16.64;99.99
66119;DHT22;52912;48.564;9.302;2023-07-29T02:42:31;16.65;99.99
66119;DHT22;52912;48.564;9.302;2023-07-29T02:44:56;16.53;99.99
66119;DHT22;52912;48.564;9.302;2023-07-29T02:47:22;16.51;99.99
66119;DHT22;52912;48.564;9.302;2023-07-29T02:49:49;16.51;99.99
66119;DHT22;52912;48.564;9.302;2023-07-29T02:52:14;16.56;99.99
66119;DHT22;52912;48.564;9.302;2023-07-29T02:54:40;16.63;99.99
66119;DHT22;52912;48.564;9.302;2023-07-29T02:57:05;16.58;99.99
66119;DHT22;52912;48.564;9.302;2023-07-29T02:59:30;16.61;99.99
66119;DHT22;52912;48.564;9.302;2023-07-29T03:01:56;16.58;99.99
66119;DHT22;52912;48.564;9.302;2023-07-29T03:04:21;16.63;99.99
66119;DHT22;52912;48.564;9.302;2023-07-29T03:06:48;16.69;99.99
66119;DHT22;52912;48.564;9.302;2023-07-29T03:09:14;16.68;99.99
66119;DHT22;52912;48.564;9.302;2023-07-29T03:11:39;16.67;99.99
66119;DHT22;52912;48.564;9.302;2023-07-29T03:14:05;16.68;99.99
66119;DHT22;52912;48.564;9.302;2023-07-29T03:16:30;16.64;99.99
66119;DHT22;52912;48.564;9.302;2023-07-29T03:18:55;16.63;99.99
66119;DHT22;52912;48.564;9.302;2023-07-29T03:21:21;16.60;99.99
66119;DHT22;52912;48.564;9.302;2023-07-29T03:23:48;16.61;99.99
66119;DHT22;52912;48.564;9.302;2023-07-29T03:26:13;16.63;99.99
66119;DHT22;52912;48.564;9.302;2023-07-29T03:28:40;16.63;99.99
66119;DHT22;52912;48.564;9.302;2023-07-29T03:31:06;16.63;99.99
66119;DHT22;52912;48.564;9.302;2023-07-29T03:33:32;16.64;99.99
66119;DHT22;52912;48.564;9.302;2023-07-29T03:35:57;16.67;99.99
66119;DHT22;52912;48.564;9.302;2023-07-29T03:38:23;16.64;99.99
66119;DHT22;52912;48.564;9.302;2023-07-29T03:40:50;16.61;99.99
66119;DHT22;52912;48.564;9.302;2023-07-29T03:43:16;16.64;99.99
66119;DHT22;52912;48.564;9.302;2023-07-29T03:45:42;16.69;99.99
66119;DHT22;52912;48.564;9.302;2023-07-29T03:48:07;16.69;99.99
66119;DHT22;52912;48.564;9.302;2023-07-29T03:50:34;16.74;99.99
66119;DHT22;52912;48.564;9.302;2023-07-29T03:52:59;16.85;99.99
66119;DHT22;52912;48.564;9.302;2023-07-29T03:55:25;16.81;99.99
66119;DHT22;52912;48.564;9.302;2023-07-29T03:57:51;16.86;99.99
66119;DHT22;52912;48.564;9.302;2023-07-29T04:00:17;16.91;99.99
66119;DHT22;52912;48.564;9.302;2023-07-29T04:02:42;16.95;99.99
66119;DHT22;52912;48.564;9.302;2023-07-29T04:05:08;16.89;99.99
66119;DHT22;52912;48.564;9.302;2023-07-29T04:07:34;16.91;99.99
66119;DHT22;52912;48.564;9.302;2023-07-29T04:09:59;16.96;99.99
66119;DHT22;52912;48.564;9.302;2023-07-29T04:12:25;17.03;99.99
66119;DHT22;52912;48.564;9.302;2023-07-29T04:14:51;17.05;99.99
66119;DHT22;52912;48.564;9.302;2023-07-29T04:17:17;17.05;99.99
66119;DHT22;52912;48.564;9.302;2023-07-29T04:19:42;17.03;99.99
66119;DHT22;52912;48.564;9.302;2023-07-29T04:22:08;17.01;99.99
66119;DHT22;52912;48.564;9.302;2023-07-29T04:24:33;16.98;99.99
66119;DHT22;52912;48.564;9.302;2023-07-29T04:26:59;16.96;99.99
66119;DHT22;52912;48.564;9.302;2023-07-29T04:29:24;16.98;99.99
66119;DHT22;52912;48.564;9.302;2023-07-29T04:31:51;16.98;99.99
66119;DHT22;52912;48.564;9.302;2023-07-29T04:34:17;16.94;99.99
66119;DHT22;52912;48.564;9.302;2023-07-29T04:36:42;16.94;99.99
66119;DHT22;52912;48.564;9.302;2023-07-29T04:39:08;16.94;99.99
66119;DHT22;52912;48.564;9.302;2023-07-29T04:41:33;16.99;99.99
66119;DHT22;52912;48.564;9.302;2023-07-29T04:43:59;17.02;99.99
66119;DHT22;52912;48.564;9.302;2023-07-29T04:46:24;17.11;99.99
66119;DHT22;52912;48.564;9.302;2023-07-29T04:48:51;17.16;99.99
66119;DHT22;52912;48.564;9.302;2023-07-29T04:51:16;17.18;99.99
66119;DHT22;52912;48.564;9.302;2023-07-29T04:53:42;17.22;99.99
66119;DHT22;52912;48.564;9.302;2023-07-29T04:56:07;17.26;99.99
66119;DHT22;52912;48.564;9.302;2023-07-29T04:58:33;17.30;99.99
66119;DHT22;52912;48.564;9.302;2023-07-29T05:00:58;17.29;99.99
66119;DHT22;52912;48.564;9.302;2023-07-29T05:03:24;17.31;99.99
66119;DHT22;52912;48.564;9.302;2023-07-29T05:05:50;17.31;99.99
66119;DHT22;52912;48.564;9.302;2023-07-29T05:08:16;17.34;99.99
66119;DHT22;52912;48.564;9.302;2023-07-29T05:10:41;17.30;99.99
66119;DHT22;52912;48.564;9.302;2023-07-29T05:13:07;17.29;99.99
66119;DHT22;52912;48.564;9.302;2023-07-29T05:15:32;17.26;99.99
66119;DHT22;52912;48.564;9.302;2023-07-29T05:17:58;17.18;99.99
66119;DHT22;52912;48.564;9.302;2023-07-29T05:20:23;17.16;99.99
66119;DHT22;52912;48.564;9.302;2023-07-29T05:22:50;17.20;99.99
66119;DHT22;52912;48.564;9.302;2023-07-29T05:25:15;17.11;99.99
66119;DHT22;52912;48.564;9.302;2023-07-29T05:27:41;17.16;99.99
66119;DHT22;52912;48.564;9.302;2023-07-29T05:30:07;17.12;99.99
66119;DHT22;52912;48.564;9.302;2023-07-29T05:32:33;16.99;99.99
66119;DHT22;52912;48.564;9.302;2023-07-29T05:34:58;16.94;99.99
66119;DHT22;52912;48.564;9.302;2023-07-29T05:37:24;16.95;99.99
66119;DHT22;52912;48.564;9.302;2023-07-29T05:39:51;17.01;99.99
66119;DHT22;52912;48.564;9.302;2023-07-29T05:42:16;17.02;99.99
66119;DHT22;52912;48.564;9.302;2023-07-29T05:44:41;17.05;99.99
66119;DHT22;52912;48.564;9.302;2023-07-29T05:47:07;17.03;99.99
66119;DHT22;52912;48.564;9.302;2023-07-29T05:49:32;17.16;99.99
66119;DHT22;52912;48.564;9.302;2023-07-29T05:51:58;17.26;99.99
66119;DHT22;52912;48.564;9.302;2023-07-29T05:54:23;17.43;99.99
66119;DHT22;52912;48.564;9.302;2023-07-29T05:56:50;17.57;99.99
66119;DHT22;52912;48.564;9.302;2023-07-29T05:59:15;17.77;99.99
66119;DHT22;52912;48.564;9.302;2023-07-29T06:01:41;17.96;99.99
66119;DHT22;52912;48.564;9.302;2023-07-29T06:04:06;18.06;99.99
66119;DHT22;52912;48.564;9.302;2023-07-29T06:06:32;18.05;99.99
66119;DHT22;52912;48.564;9.302;2023-07-29T06:08:57;18.20;99.99
66119;DHT22;52912;48.564;9.302;2023-07-29T06:11:23;18.29;99.99
66119;DHT22;52912;48.564;9.302;2023-07-29T06:13:49;18.54;99.99
66119;DHT22;52912;48.564;9.302;2023-07-29T06:16:15;18.71;99.99
66119;DHT22;52912;48.564;9.302;2023-07-29T06:18:40;18.78;99.99
66119;DHT22;52912;48.564;9.302;2023-07-29T06:21:06;18.96;99.99
66119;DHT22;52912;48.564;9.302;2023-07-29T06:23:31;18.95;99.99
66119;DHT22;52912;48.564;9.302;2023-07-29T06:25:57;18.94;99.99
66119;DHT22;52912;48.564;9.302;2023-07-29T06:28:22;18.96;99.99
66119;DHT22;52912;48.564;9.302;2023-07-29T06:30:49;19.02;99.99
66119;DHT22;52912;48.564;9.302;2023-07-29T06:33:14;19.08;99.99
66119;DHT22;52912;48.564;9.302;2023-07-29T06:35:41;19.09;99.99
66119;DHT22;52912;48.564;9.302;2023-07-29T06:38:06;19.18;99.99
66119;DHT22;52912;48.564;9.302;2023-07-29T06:40:32;19.24;99.99
66119;DHT22;52912;48.564;9.302;2023-07-29T06:42:57;19.30;99.99
66119;DHT22;52912;48.564;9.302;2023-07-29T06:45:23;19.41;99.99
66119;DHT22;52912;48.564;9.302;2023-07-29T06:47:49;19.43;99.99
66119;DHT22;52912;48.564;9.302;2023-07-29T06:50:15;19.47;99.99
66119;DHT22;52912;48.564;9.302;2023-07-29T06:52:40;19.61;99.99
66119;DHT22;52912;48.564;9.302;2023-07-29T06:55:06;19.64;99.99
66119;DHT22;52912;48.564;9.302;2023-07-29T06:57:32;19.71;99.99
66119;DHT22;52912;48.564;9.302;2023-07-29T06:59:58;19.64;99.14
66119;DHT22;52912;48.564;9.302;2023-07-29T07:02:23;19.61;99.35
66119;DHT22;52912;48.564;9.302;2023-07-29T07:04:50;19.44;99.20
66119;DHT22;52912;48.564;9.302;2023-07-29T07:07:15;19.33;99.22
66119;DHT22;52912;48.564;9.302;2023-07-29T07:09:41;19.22;99.19
66119;DHT22;52912;48.564;9.302;2023-07-29T07:12:07;18.96;99.99
66119;DHT22;52912;48.564;9.302;2023-07-29T07:14:32;18.95;99.99
66119;DHT22;52912;48.564;9.302;2023-07-29T07:16:58;18.72;99.65
66119;DHT22;52912;48.564;9.302;2023-07-29T07:19:23;18.61;99.73
66119;DHT22;52912;48.564;9.302;2023-07-29T07:21:50;18.58;99.99
66119;DHT22;52912;48.564;9.302;2023-07-29T07:24:15;18.56;99.99
66119;DHT22;52912;48.564;9.302;2023-07-29T07:26:41;18.51;99.99
66119;DHT22;52912;48.564;9.302;2023-07-29T07:29:06;18.56;99.99
66119;DHT22;52912;48.564;9.302;2023-07-29T07:31:33;18.50;99.99
66119;DHT22;52912;48.564;9.302;2023-07-29T07:33:59;18.57;99.99
66119;DHT22;52912;48.564;9.302;2023-07-29T07:36:24;18.65;99.99
66119;DHT22;52912;48.564;9.302;2023-07-29T07:38:51;18.64;99.99
66119;DHT22;52912;48.564;9.302;2023-07-29T07:41:16;18.57;99.99
66119;DHT22;52912;48.564;9.302;2023-07-29T07:43:42;18.58;99.99
66119;DHT22;52912;48.564;9.302;2023-07-29T07:46:07;18.46;99.99
66119;DHT22;52912;48.564;9.302;2023-07-29T07:48:33;18.60;99.99
66119;DHT22;52912;48.564;9.302;2023-07-29T07:50:58;18.67;99.99
66119;DHT22;52912;48.564;9.302;2023-07-29T07:53:24;18.67;99.99
66119;DHT22;52912;48.564;9.302;2023-07-29T07:55:51;18.65;99.99
66119;DHT22;52912;48.564;9.302;2023-07-29T07:58:16;18.75;99.99
66119;DHT22;52912;48.564;9.302;2023-07-29T08:00:42;18.76;99.99
66119;DHT22;52912;48.564;9.302;2023-07-29T08:03:07;18.79;99.87
66119;DHT22;52912;48.564;9.302;2023-07-29T08:05:33;18.88;99.59
66119;DHT22;52912;48.564;9.302;2023-07-29T08:07:58;18.98;99.33
66119;DHT22;52912;48.564;9.302;2023-07-29T08:10:24;19.05;99.16
66119;DHT22;52912;48.564;9.302;2023-07-29T08:12:50;19.09;99.53
66119;DHT22;52912;48.564;9.302;2023-07-29T08:15:16;19.16;99.06
66119;DHT22;52912;48.564;9.302;2023-07-29T08:17:41;19.26;98.77
66119;DHT22;52912;48.564;9.302;2023-07-29T08:20:07;19.36;99.14
66119;DHT22;52912;48.564;9.302;2023-07-29T08:22:33;19.37;98.66
66119;DHT22;52912;48.564;9.302;2023-07-29T08:24:58;19.40;97.68
66119;DHT22;52912;48.564;9.302;2023-07-29T08:27:24;19.41;97.89
66119;DHT22;52912;48.564;9.302;2023-07-29T08:29:50;19.46;98.41
66119;DHT22;52912;48.564;9.302;2023-07-29T08:32:16;19.55;98.03
66119;DHT22;52912;48.564;9.302;2023-07-29T08:34:41;19.61;97.96
66119;DHT22;52912;48.564;9.302;2023-07-29T08:37:07;19.67;97.39
66119;DHT22;52912;48.564;9.302;2023-07-29T08:39:32;19.54;97.85
66119;DHT22;52912;48.564;9.302;2023-07-29T08:42:02;19.60;98.52
66119;DHT22;52912;48.564;9.302;2023-07-29T08:44:31;19.58;98.23
66119;DHT22;52912;48.564;9.302;2023-07-29T08:47:01;19.58;98.39
66119;DHT22;52912;48.564;9.302;2023-07-29T08:49:27;19.75;98.29
66119;DHT22;52912;48.564;9.302;2023-07-29T08:51:53;19.91;97.91
66119;DHT22;52912;48.564;9.302;2023-07-29T08:54:19;19.85;97.95
66119;DHT22;52912;48.564;9.302;2023-07-29T08:56:45;19.70;98.46
66119;DHT22;52912;48.564;9.302;2023-07-29T08:59:12;19.71;98.62
66119;DHT22;52912;48.564;9.302;2023-07-29T09:01:38;19.75;98.19
66119;DHT22;52912;48.564;9.302;2023-07-29T09:04:05;19.83;98.08
66119;DHT22;52912;48.564;9.302;2023-07-29T09:06:31;20.02;97.73
66119;DHT22;52912;48.564;9.302;2023-07-29T09:08:58;20.19;98.25
66119;DHT22;52912;48.564;9.302;2023-07-29T09:11:24;20.29;97.67
66119;DHT22;52912;48.564;9.302;2023-07-29T09:13:50;20.95;96.60
66119;DHT22;52912;48.564;9.302;2023-07-29T09:16:15;21.39;95.78
66119;DHT22;52912;48.564;9.302;2023-07-29T09:18:41;21.77;94.64
66119;DHT22;52912;48.564;9.302;2023-07-29T09:21:08;21.96;93.47
66119;DHT22;52912;48.564;9.302;2023-07-29T09:23:38;22.20;93.80
66119;DHT22;52912;48.564;9.302;2023-07-29T09:26:04;22.51;92.91
66119;DHT22;52912;48.564;9.302;2023-07-29T09:28:33;22.96;91.28
66119;DHT22;52912;48.564;9.302;2023-07-29T09:30:59;22.94;92.15
66119;DHT22;52912;48.564;9.302;2023-07-29T09:33:25;22.61;91.59
66119;DHT22;52912;48.564;9.302;2023-07-29T09:35:51;22.99;91.20
66119;DHT22;52912;48.564;9.302;2023-07-29T09:38:18;23.27;91.35
66119;DHT22;52912;48.564;9.302;2023-07-29T09:40:43;23.29;89.08
66119;DHT22;52912;48.564;9.302;2023-07-29T09:43:09;23.34;88.32
66119;DHT22;52912;48.564;9.302;2023-07-29T09:45:36;23.64;88.67
66119;DHT22;52912;48.564;9.302;2023-07-29T09:48:02;23.74;87.46
66119;DHT22;52912;48.564;9.302;2023-07-29T09:50:28;23.88;84.25
66119;DHT22;52912;48.564;9.302;2023-07-29T09:52:55;24.19;86.05
66119;DHT22;52912;48.564;9.302;2023-07-29T09:55:23;24.61;84.86
66119;DHT22;52912;48.564;9.302;2023-07-29T09:57:53;24.82;83.83
66119;DHT22;52912;48.564;9.302;2023-07-29T10:00:18;24.88;84.01
66119;DHT22;52912;48.564;9.302;2023-07-29T10:02:44;25.20;83.97
66119;DHT22;52912;48.564;9.302;2023-07-29T10:05:10;24.81;83.45
66119;DHT22;52912;48.564;9.302;2023-07-29T10:07:36;24.85;83.31
66119;DHT22;52912;48.564;9.302;2023-07-29T10:10:04;25.14;80.90
66119;DHT22;52912;48.564;9.302;2023-07-29T10:12:32;25.32;81.80
66119;DHT22;52912;48.564;9.302;2023-07-29T10:14:59;25.32;81.62
66119;DHT22;52912;48.564;9.302;2023-07-29T10:17:26;25.37;82.57
66119;DHT22;52912;48.564;9.302;2023-07-29T10:19:51;25.26;81.04
66119;DHT22;52912;48.564;9.302;2023-07-29T10:22:19;25.46;81.34
66119;DHT22;52912;48.564;9.302;2023-07-29T10:24:45;25.33;80.04
66119;DHT22;52912;48.564;9.302;2023-07-29T10:27:14;25.63;80.68
66119;DHT22;52912;48.564;9.302;2023-07-29T10:29:44;26.09;80.45
66119;DHT22;52912;48.564;9.302;2023-07-29T10:32:11;26.39;78.97
66119;DHT22;52912;48.564;9.302;2023-07-29T10:34:36;26.28;77.80
66119;DHT22;52912;48.564;9.302;2023-07-29T10:37:03;25.87;78.86
66119;DHT22;52912;48.564;9.302;2023-07-29T10:39:37;25.57;78.39
66119;DHT22;52912;48.564;9.302;2023-07-29T10:42:06;25.74;76.32
66119;DHT22;52912;48.564;9.302;2023-07-29T10:44:52;25.46;76.39
66119;DHT22;52912;48.564;9.302;2023-07-29T10:47:22;25.36;75.25
66119;DHT22;52912;48.564;9.302;2023-07-29T10:49:51;25.12;76.58
66119;DHT22;52912;48.564;9.302;2023-07-29T10:52:40;25.11;77.50
66119;DHT22;52912;48.564;9.302;2023-07-29T10:55:27;25.06;76.67
66119;DHT22;52912;48.564;9.302;2023-07-29T10:57:52;25.91;75.71
66119;DHT22;52912;48.564;9.302;2023-07-29T11:00:31;25.64;75.30
66119;DHT22;52912;48.564;9.302;2023-07-29T11:03:00;25.53;75.72
66119;DHT22;52912;48.564;9.302;2023-07-29T11:05:25;25.56;76.54
66119;DHT22;52912;48.564;9.302;2023-07-29T11:07:51;25.46;76.44
66119;DHT22;52912;48.564;9.302;2023-07-29T11:10:16;25.51;75.42
66119;DHT22;52912;48.564;9.302;2023-07-29T11:12:44;26.32;74.85
66119;DHT22;52912;48.564;9.302;2023-07-29T11:15:15;26.23;74.87
66119;DHT22;52912;48.564;9.302;2023-07-29T11:17:43;26.56;72.87
66119;DHT22;52912;48.564;9.302;2023-07-29T11:20:11;26.96;71.76
66119;DHT22;52912;48.564;9.302;2023-07-29T11:22:37;27.03;68.98
66119;DHT22;52912;48.564;9.302;2023-07-29T11:25:03;26.63;69.68
66119;DHT22;52912;48.564;9.302;2023-07-29T11:27:28;26.54;70.02
66119;DHT22;52912;48.564;9.302;2023-07-29T11:29:56;26.13;70.13
66119;DHT22;52912;48.564;9.302;2023-07-29T11:32:22;25.81;70.82
66119;DHT22;52912;48.564;9.302;2023-07-29T11:34:49;25.74;71.36
66119;DHT22;52912;48.564;9.302;2023-07-29T11:37:15;25.89;72.40
66119;DHT22;52912;48.564;9.302;2023-07-29T11:39:41;25.75;71.70
66119;DHT22;52912;48.564;9.302;2023-07-29T11:42:07;25.68;72.18
66119;DHT22;52912;48.564;9.302;2023-07-29T11:44:35;25.71;71.74
66119;DHT22;52912;48.564;9.302;2023-07-29T11:47:01;25.67;71.88
66119;DHT22;52912;48.564;9.302;2023-07-29T11:49:27;25.82;71.07
66119;DHT22;52912;48.564;9.302;2023-07-29T11:51:54;25.74;72.11
66119;DHT22;52912;48.564;9.302;2023-07-29T11:54:19;26.33;71.92
66119;DHT22;52912;48.564;9.302;2023-07-29T11:56:45;26.74;71.17
66119;DHT22;52912;48.564;9.302;2023-07-29T11:59:11;26.95;70.40
66119;DHT22;52912;48.564;9.302;2023-07-29T12:01:38;27.15;70.18
66119;DHT22;52912;48.564;9.302;2023-07-29T12:04:03;27.09;68.82
66119;DHT22;52912;48.564;9.302;2023-07-29T12:06:29;27.25;69.19
66119;DHT22;52912;48.564;9.302;2023-07-29T12:08:56;27.15;69.67
66119;DHT22;52912;48.564;9.302;2023-07-29T12:11:22;26.81;68.91
66119;DHT22;52912;48.564;9.302;2023-07-29T12:13:48;27.03;68.72
66119;DHT22;52912;48.564;9.302;2023-07-29T12:16:16;26.53;69.18
66119;DHT22;52912;48.564;9.302;2023-07-29T12:18:42;26.26;69.77
66119;DHT22;52912;48.564;9.302;2023-07-29T12:21:08;26.61;70.15
66119;DHT22;52912;48.564;9.302;2023-07-29T12:23:33;26.90;68.89
66119;DHT22;52912;48.564;9.302;2023-07-29T12:26:00;27.45;68.42
66119;DHT22;52912;48.564;9.302;2023-07-29T12:28:26;27.32;68.31
66119;DHT22;52912;48.564;9.302;2023-07-29T12:30:53;27.47;67.48
66119;DHT22;52912;48.564;9.302;2023-07-29T12:33:29;27.11;67.61
66119;DHT22;52912;48.564;9.302;2023-07-29T12:35:55;27.64;67.95
66119;DHT22;52912;48.564;9.302;2023-07-29T12:38:21;27.22;67.66
66119;DHT22;52912;48.564;9.302;2023-07-29T12:40:46;26.90;68.51
66119;DHT22;52912;48.564;9.302;2023-07-29T12:43:13;26.63;68.96
66119;DHT22;52912;48.564;9.302;2023-07-29T12:45:38;26.12;69.38
66119;DHT22;52912;48.564;9.302;2023-07-29T12:48:04;26.30;70.15
66119;DHT22;52912;48.564;9.302;2023-07-29T12:50:30;26.25;69.79
66119;DHT22;52912;48.564;9.302;2023-07-29T12:52:55;26.13;69.76
66119;DHT22;52912;48.564;9.302;2023-07-29T12:55:21;26.33;70.20
66119;DHT22;52912;48.564;9.302;2023-07-29T12:57:46;26.09;70.15
66119;DHT22;52912;48.564;9.302;2023-07-29T13:00:13;26.40;70.63
66119;DHT22;52912;48.564;9.302;2023-07-29T13:02:39;26.29;70.51
66119;DHT22;52912;48.564;9.302;2023-07-29T13:05:06;26.71;70.22
66119;DHT22;52912;48.564;9.302;2023-07-29T13:07:31;26.70;69.71
66119;DHT22;52912;48.564;9.302;2023-07-29T13:09:57;26.46;70.15
66119;DHT22;52912;48.564;9.302;2023-07-29T13:12:22;26.80;70.16
66119;DHT22;52912;48.564;9.302;2023-07-29T13:14:48;26.68;69.21
66119;DHT22;52912;48.564;9.302;2023-07-29T13:17:14;26.60;70.13
66119;DHT22;52912;48.564;9.302;2023-07-29T13:19:40;26.60;69.66
66119;DHT22;52912;48.564;9.302;2023-07-29T13:22:05;26.94;69.88
66119;DHT22;52912;48.564;9.302;2023-07-29T13:24:31;26.84;69.78
66119;DHT22;52912;48.564;9.302;2023-07-29T13:26:56;26.81;68.52
66119;DHT22;52912;48.564;9.302;2023-07-29T13:29:22;26.53;68.93
66119;DHT22;52912;48.564;9.302;2023-07-29T13:31:47;26.39;69.44
66119;DHT22;52912;48.564;9.302;2023-07-29T13:34:14;26.46;69.89
66119;DHT22;52912;48.564;9.302;2023-07-29T13:36:39;26.84;69.74
66119;DHT22;52912;48.564;9.302;2023-07-29T13:39:05;26.41;69.77
66119;DHT22;52912;48.564;9.302;2023-07-29T13:41:30;26.29;69.94
66119;DHT22;52912;48.564;9.302;2023-07-29T13:43:56;26.28;70.97
66119;DHT22;52912;48.564;9.302;2023-07-29T13:46:21;26.36;70.81
66119;DHT22;52912;48.564;9.302;2023-07-29T13:48:47;26.64;70.20
66119;DHT22;52912;48.564;9.302;2023-07-29T13:51:13;26.60;69.97
66119;DHT22;52912;48.564;9.302;2023-07-29T13:53:39;26.64;69.78
66119;DHT22;52912;48.564;9.302;2023-07-29T13:56:04;26.68;70.22
66119;DHT22;52912;48.564;9.302;2023-07-29T13:58:30;26.33;70.20
66119;DHT22;52912;48.564;9.302;2023-07-29T14:00:55;26.21;70.84
66119;DHT22;52912;48.564;9.302;2023-07-29T14:03:21;26.32;70.25
66119;DHT22;52912;48.564;9.302;2023-07-29T14:05:46;26.32;70.20
66119;DHT22;52912;48.564;9.302;2023-07-29T14:08:13;26.47;69.45
66119;DHT22;52912;48.564;9.302;2023-07-29T14:10:38;26.47;69.92
66119;DHT22;52912;48.564;9.302;2023-07-29T14:13:04;26.53;70.60
66119;DHT22;52912;48.564;9.302;2023-07-29T14:15:29;26.21;69.40
66119;DHT22;52912;48.564;9.302;2023-07-29T14:17:55;26.29;69.24
66119;DHT22;52912;48.564;9.302;2023-07-29T14:20:20;26.32;69.11
66119;DHT22;52912;48.564;9.302;2023-07-29T14:22:46;26.51;70.11
66119;DHT22;52912;48.564;9.302;2023-07-29T14:25:14;26.58;67.91
66119;DHT22;52912;48.564;9.302;2023-07-29T14:27:39;26.63;66.94
66119;DHT22;52912;48.564;9.302;2023-07-29T14:30:05;26.39;67.97
66119;DHT22;52912;48.564;9.302;2023-07-29T14:32:31;26.32;68.39
66119;DHT22;52912;48.564;9.302;2023-07-29T14:34:56;26.11;68.60
66119;DHT22;52912;48.564;9.302;2023-07-29T14:37:22;26.15;68.74
66119;DHT22;52912;48.564;9.302;2023-07-29T14:39:47;26.15;68.91
66119;DHT22;52912;48.564;9.302;2023-07-29T14:42:14;26.44;69.02
66119;DHT22;52912;48.564;9.302;2023-07-29T14:44:40;26.23;68.72
66119;DHT22;52912;48.564;9.302;2023-07-29T14:47:07;26.23;69.93
66119;DHT22;52912;48.564;9.302;2023-07-29T14:49:32;26.37;67.98
66119;DHT22;52912;48.564;9.302;2023-07-29T14:51:58;26.06;68.58
66119;DHT22;52912;48.564;9.302;2023-07-29T14:54:23;26.26;68.69
66119;DHT22;52912;48.564;9.302;2023-07-29T14:56:49;26.33;68.34
66119;DHT22;52912;48.564;9.302;2023-07-29T14:59:15;26.33;68.44
66119;DHT22;52912;48.564;9.302;2023-07-29T15:01:41;26.43;68.37
66119;DHT22;52912;48.564;9.302;2023-07-29T15:04:06;26.46;67.32
66119;DHT22;52912;48.564;9.302;2023-07-29T15:06:32;26.26;66.71
66119;DHT22;52912;48.564;9.302;2023-07-29T15:08:57;26.23;67.34
66119;DHT22;52912;48.564;9.302;2023-07-29T15:11:23;26.13;67.11
66119;DHT22;52912;48.564;9.302;2023-07-29T15:13:48;26.06;67.26
66119;DHT22;52912;48.564;9.302;2023-07-29T15:16:15;25.82;67.10
66119;DHT22;52912;48.564;9.302;2023-07-29T15:18:40;25.78;67.94
66119;DHT22;52912;48.564;9.302;2023-07-29T15:21:06;25.77;67.73
66119;DHT22;52912;48.564;9.302;2023-07-29T15:23:31;25.68;68.41